createdAt,value
2023-04-02T00:00:20.545Z,29.33
2023-04-02T00:01:20.579Z,29.33
2023-04-02T00:02:20.663Z,29.35
2023-04-02T00:03:20.783Z,29.36
2023-04-02T00:04:20.617Z,29.36
2023-04-02T00:05:20.643Z,29.37
2023-04-02T00:06:20.617Z,29.36
2023-04-02T00:07:20.637Z,29.34
2023-04-02T00:08:20.604Z,29.36
2023-04-02T00:09:20.601Z,29.36
2023-04-02T00:10:20.595Z,29.36
2023-04-02T00:11:20.597Z,29.37
2023-04-02T00:12:20.612Z,29.37
2023-04-02T00:13:20.606Z,29.36
2023-04-02T00:14:20.571Z,29.37
2023-04-02T00:15:20.577Z,29.37
2023-04-02T00:16:20.581Z,29.37
2023-04-02T00:17:20.581Z,29.36
2023-04-02T00:18:20.622Z,29.38
2023-04-02T00:19:20.578Z,29.38
2023-04-02T00:20:20.574Z,29.41
2023-04-02T00:21:20.580Z,29.39
2023-04-02T00:22:20.557Z,29.38
2023-04-02T00:23:20.554Z,29.41
2023-04-02T00:24:20.560Z,29.41
2023-04-02T00:25:20.554Z,29.41
2023-04-02T00:26:20.531Z,29.39
2023-04-02T00:27:20.539Z,29.39
2023-04-02T00:28:20.525Z,29.40
2023-04-02T00:29:20.534Z,29.38
2023-04-02T00:30:20.539Z,29.38
2023-04-02T00:31:20.532Z,29.37
2023-04-02T00:32:20.576Z,29.38
2023-04-02T00:33:20.535Z,29.38
2023-04-02T00:34:20.534Z,29.38
2023-04-02T00:35:20.539Z,29.38
2023-04-02T00:36:20.558Z,29.40
2023-04-02T00:37:20.534Z,29.39
2023-04-02T00:38:20.525Z,29.40
2023-04-02T00:39:20.529Z,29.39
2023-04-02T00:40:20.526Z,29.38
2023-04-02T00:41:20.524Z,29.37
2023-04-02T00:42:20.533Z,29.39
2023-04-02T00:43:20.527Z,29.40
2023-04-02T00:44:20.520Z,29.39
2023-04-02T00:45:20.518Z,29.42
2023-04-02T00:46:20.599Z,29.42
2023-04-02T00:47:20.558Z,29.42
2023-04-02T00:48:21.159Z,29.42
2023-04-02T00:49:20.640Z,29.42
2023-04-02T00:50:20.644Z,29.42
2023-04-02T00:51:20.717Z,29.43
2023-04-02T00:52:20.698Z,29.40
2023-04-02T00:53:20.735Z,29.42
2023-04-02T00:54:20.775Z,29.41
2023-04-02T00:55:20.809Z,29.43
2023-04-02T00:56:20.825Z,29.40
2023-04-02T00:57:20.905Z,29.42
2023-04-02T00:58:20.892Z,29.42
2023-04-02T00:59:20.916Z,29.42
2023-04-02T01:00:20.890Z,29.43
2023-04-02T01:01:20.916Z,29.40
2023-04-02T01:02:20.903Z,29.42
2023-04-02T01:03:20.972Z,29.42
2023-04-02T01:04:21.085Z,29.44
2023-04-02T01:05:20.886Z,29.43
2023-04-02T01:06:20.877Z,29.46
2023-04-02T01:07:20.877Z,29.42
2023-04-02T01:08:20.889Z,29.43
2023-04-02T01:09:20.905Z,29.41
2023-04-02T01:10:20.872Z,29.42
2023-04-02T01:11:20.870Z,29.45
2023-04-02T01:12:20.875Z,29.41
2023-04-02T01:13:20.874Z,29.42
2023-04-02T01:14:20.867Z,29.46
2023-04-02T01:15:20.862Z,29.42
2023-04-02T01:16:20.964Z,29.43
2023-04-02T01:17:20.841Z,29.43
2023-04-02T01:18:20.842Z,29.43
2023-04-02T01:19:20.836Z,29.43
2023-04-02T01:20:20.821Z,29.42
2023-04-02T01:21:20.817Z,29.44
2023-04-02T01:22:20.810Z,29.42
2023-04-02T01:23:20.825Z,29.43
2023-04-02T01:24:20.818Z,29.41
2023-04-02T01:25:20.822Z,29.40
2023-04-02T01:26:20.802Z,29.40
2023-04-02T01:27:20.808Z,29.41
2023-04-02T01:28:20.797Z,29.40
2023-04-02T01:29:20.788Z,29.40
2023-04-02T01:30:20.794Z,29.39
2023-04-02T01:31:20.817Z,29.40
2023-04-02T01:32:20.780Z,29.40
2023-04-02T01:33:20.802Z,29.38
2023-04-02T01:34:20.807Z,29.37
2023-04-02T01:35:20.770Z,29.40
2023-04-02T01:36:20.801Z,29.42
2023-04-02T01:37:20.770Z,29.41
2023-04-02T01:38:20.754Z,29.40
2023-04-02T01:39:20.776Z,29.42
2023-04-02T01:40:20.767Z,29.44
2023-04-02T01:41:20.754Z,29.45
2023-04-02T01:42:20.745Z,29.45
2023-04-02T01:43:20.745Z,29.43
2023-04-02T01:44:20.752Z,29.46
2023-04-02T01:45:20.748Z,29.43
2023-04-02T01:46:20.749Z,29.45
2023-04-02T01:47:20.732Z,29.45
2023-04-02T01:48:20.725Z,29.47
2023-04-02T01:49:20.738Z,29.47
2023-04-02T01:50:20.766Z,29.46
2023-04-02T01:51:20.788Z,29.45
2023-04-02T01:52:20.808Z,29.47
2023-04-02T01:53:20.858Z,29.43
2023-04-02T01:54:20.881Z,29.44
2023-04-02T01:55:20.912Z,29.44
2023-04-02T01:56:20.946Z,29.44
2023-04-02T01:57:21.013Z,29.45
2023-04-02T01:58:21.022Z,29.46
2023-04-02T01:59:21.041Z,29.44
2023-04-02T02:00:21.105Z,29.45
2023-04-02T02:01:21.193Z,29.43
2023-04-02T02:02:21.174Z,29.43
2023-04-02T02:03:21.182Z,29.44
2023-04-02T02:04:21.190Z,29.44
2023-04-02T02:05:21.235Z,29.43
2023-04-02T02:06:21.264Z,29.46
2023-04-02T02:07:21.297Z,29.45
2023-04-02T02:08:21.337Z,29.42
2023-04-02T02:09:21.307Z,29.43
2023-04-02T02:10:21.308Z,29.43
2023-04-02T02:11:21.300Z,29.44
2023-04-02T02:12:21.303Z,29.45
2023-04-02T02:13:21.305Z,29.44
2023-04-02T02:14:21.312Z,29.43
2023-04-02T02:15:21.315Z,29.44
2023-04-02T02:16:21.335Z,29.44
2023-04-02T02:17:21.349Z,29.45
2023-04-02T02:18:21.293Z,29.42
2023-04-02T02:19:21.297Z,29.42
2023-04-02T02:20:21.320Z,29.43
2023-04-02T02:21:21.293Z,29.44
2023-04-02T02:22:21.296Z,29.44
2023-04-02T02:23:21.309Z,29.46
2023-04-02T02:24:21.297Z,29.45
2023-04-02T02:25:21.320Z,29.45
2023-04-02T02:26:21.311Z,29.46
2023-04-02T02:27:21.320Z,29.43
2023-04-02T02:28:21.315Z,29.47
2023-04-02T02:29:21.330Z,29.45
2023-04-02T02:30:21.345Z,29.46
2023-04-02T02:31:21.351Z,29.45
2023-04-02T02:32:21.364Z,29.44
2023-04-02T02:33:21.349Z,29.43
2023-04-02T02:34:21.344Z,29.44
2023-04-02T02:35:21.352Z,29.47
2023-04-02T02:36:21.388Z,29.44
2023-04-02T02:37:21.364Z,29.46
2023-04-02T02:38:21.358Z,29.47
2023-04-02T02:39:21.362Z,29.49
2023-04-02T02:40:21.369Z,29.49
2023-04-02T02:41:21.362Z,29.48
2023-04-02T02:42:21.361Z,29.49
2023-04-02T02:43:21.389Z,29.48
2023-04-02T02:44:21.379Z,29.50
2023-04-02T02:45:21.385Z,29.50
2023-04-02T02:46:21.462Z,29.50
2023-04-02T02:47:21.390Z,29.49
2023-04-02T02:48:21.391Z,29.49
2023-04-02T02:49:21.384Z,29.50
2023-04-02T02:50:21.398Z,29.49
2023-04-02T02:51:21.388Z,29.49
2023-04-02T02:52:21.412Z,29.49
2023-04-02T02:53:21.405Z,29.50
2023-04-02T02:54:21.410Z,29.51
2023-04-02T02:55:21.418Z,29.49
2023-04-02T02:56:21.417Z,29.49
2023-04-02T02:57:21.458Z,29.38
2023-04-02T02:58:21.430Z,28.45
2023-04-02T02:59:21.459Z,28.20
2023-04-02T03:00:21.455Z,28.10
2023-04-02T03:01:21.487Z,27.89
2023-04-02T03:02:21.553Z,27.70
2023-04-02T03:03:21.644Z,27.52
2023-04-02T03:04:21.527Z,27.37
2023-04-02T03:05:21.492Z,27.22
2023-04-02T03:06:21.499Z,27.21
2023-04-02T03:07:21.500Z,27.05
2023-04-02T03:08:21.513Z,26.94
2023-04-02T03:09:21.560Z,26.84
2023-04-02T03:10:21.549Z,26.76
2023-04-02T03:11:21.566Z,26.72
2023-04-02T03:12:21.595Z,26.61
2023-04-02T03:13:21.577Z,26.48
2023-04-02T03:14:21.583Z,26.46
2023-04-02T03:15:21.607Z,26.39
2023-04-02T03:16:21.651Z,26.28
2023-04-02T03:17:21.656Z,26.18
2023-04-02T03:18:21.691Z,26.16
2023-04-02T03:19:21.730Z,26.07
2023-04-02T03:20:21.764Z,26.07
2023-04-02T03:21:21.803Z,25.97
2023-04-02T03:22:21.833Z,25.91
2023-04-02T03:23:21.885Z,25.94
2023-04-02T03:24:21.933Z,25.83
2023-04-02T03:25:21.989Z,25.78
2023-04-02T03:26:21.989Z,25.77
2023-04-02T03:27:22.050Z,25.73
2023-04-02T03:28:22.084Z,25.71
2023-04-02T03:29:22.120Z,25.66
2023-04-02T03:30:22.166Z,25.59
2023-04-02T03:31:22.225Z,25.62
2023-04-02T03:32:22.253Z,25.56
2023-04-02T03:33:22.268Z,25.50
2023-04-02T03:34:22.331Z,25.46
2023-04-02T03:35:22.355Z,25.46
2023-04-02T03:36:22.445Z,25.41
2023-04-02T03:37:22.445Z,25.41
2023-04-02T03:38:22.476Z,25.38
2023-04-02T03:39:22.532Z,25.43
2023-04-02T03:40:22.581Z,25.38
2023-04-02T03:41:22.615Z,25.36
2023-04-02T03:42:22.654Z,25.35
2023-04-02T03:43:22.709Z,25.32
2023-04-02T03:44:22.733Z,25.30
2023-04-02T03:45:22.783Z,25.25
2023-04-02T03:46:22.886Z,25.26
2023-04-02T03:47:22.913Z,25.29
2023-04-02T03:48:22.939Z,25.22
2023-04-02T03:49:22.999Z,25.20
2023-04-02T03:50:23.050Z,25.19
2023-04-02T03:51:23.113Z,25.20
2023-04-02T03:52:23.175Z,25.18
2023-04-02T03:53:23.226Z,25.16
2023-04-02T03:54:23.292Z,25.14
2023-04-02T03:55:23.370Z,25.12
2023-04-02T03:56:23.368Z,25.13
2023-04-02T03:57:23.417Z,25.16
2023-04-02T03:58:23.381Z,25.10
2023-04-02T03:59:23.389Z,25.07
2023-04-02T04:00:23.394Z,25.10
2023-04-02T04:01:23.407Z,25.07
2023-04-02T04:02:23.487Z,25.08
2023-04-02T04:03:23.414Z,25.08
2023-04-02T04:04:23.482Z,25.04
2023-04-02T04:05:23.439Z,25.02
2023-04-02T04:06:23.445Z,25.02
2023-04-02T04:07:23.453Z,25.03
2023-04-02T04:08:23.469Z,25.05
2023-04-02T04:09:23.533Z,25.01
2023-04-02T04:10:23.597Z,25.03
2023-04-02T04:11:23.721Z,25.00
2023-04-02T04:12:23.719Z,24.99
2023-04-02T04:13:23.784Z,24.99
2023-04-02T04:14:23.856Z,25.00
2023-04-02T04:15:23.929Z,25.00
2023-04-02T04:16:24.059Z,24.96
2023-04-02T04:17:24.078Z,24.92
2023-04-02T04:18:24.177Z,24.91
2023-04-02T04:19:24.238Z,24.94
2023-04-02T04:20:24.311Z,24.94
2023-04-02T04:21:24.378Z,24.93
2023-04-02T04:22:24.465Z,24.94
2023-04-02T04:23:24.533Z,24.95
2023-04-02T04:24:24.628Z,24.89
2023-04-02T04:25:24.677Z,24.89
2023-04-02T04:26:24.865Z,24.92
2023-04-02T04:27:24.835Z,24.91
2023-04-02T04:28:24.905Z,24.90
2023-04-02T04:29:24.989Z,24.89
2023-04-02T04:30:25.074Z,24.88
2023-04-02T04:31:26.044Z,24.90
2023-04-02T04:32:25.235Z,24.89
2023-04-02T04:33:25.382Z,24.86
2023-04-02T04:34:25.385Z,24.85
2023-04-02T04:35:25.455Z,24.86
2023-04-02T04:36:25.532Z,24.84
2023-04-02T04:37:25.614Z,24.86
2023-04-02T04:38:25.679Z,24.85
2023-04-02T04:39:25.753Z,24.89
2023-04-02T04:40:25.841Z,24.87
2023-04-02T04:41:25.925Z,24.86
2023-04-02T04:42:25.983Z,24.85
2023-04-02T04:43:26.058Z,24.83
2023-04-02T04:44:26.143Z,24.85
2023-04-02T04:45:26.194Z,24.77
2023-04-02T04:46:26.311Z,24.78
2023-04-02T04:47:26.271Z,24.80
2023-04-02T04:48:26.270Z,24.78
2023-04-02T04:49:26.295Z,24.77
2023-04-02T04:50:26.286Z,24.81
2023-04-02T04:51:26.306Z,24.77
2023-04-02T04:52:26.307Z,24.75
2023-04-02T04:53:26.316Z,24.77
2023-04-02T04:54:26.344Z,24.80
2023-04-02T04:55:26.351Z,24.77
2023-04-02T04:56:26.423Z,24.75
2023-04-02T04:57:26.557Z,24.81
2023-04-02T04:58:26.526Z,24.78
2023-04-02T04:59:26.589Z,24.79
2023-04-02T05:00:26.631Z,24.80
2023-04-02T05:01:26.727Z,24.77
2023-04-02T05:02:26.826Z,24.81
2023-04-02T05:03:26.842Z,24.81
2023-04-02T05:04:26.918Z,24.77
2023-04-02T05:05:26.903Z,24.77
2023-04-02T05:06:26.926Z,24.74
2023-04-02T05:07:26.915Z,24.77
2023-04-02T05:08:26.959Z,24.70
2023-04-02T05:09:26.934Z,24.75
2023-04-02T05:10:26.954Z,24.77
2023-04-02T05:11:26.960Z,24.71
2023-04-02T05:12:26.970Z,24.69
2023-04-02T05:13:26.977Z,24.72
2023-04-02T05:14:27.000Z,24.71
2023-04-02T05:15:26.989Z,24.69
2023-04-02T05:16:27.022Z,24.72
2023-04-02T05:17:27.034Z,24.70
2023-04-02T05:18:27.004Z,24.68
2023-04-02T05:19:27.022Z,24.66
2023-04-02T05:20:27.037Z,24.72
2023-04-02T05:21:27.049Z,24.65
2023-04-02T05:22:27.081Z,24.67
2023-04-02T05:23:27.076Z,24.68
2023-04-02T05:24:27.088Z,24.69
2023-04-02T05:25:27.115Z,24.68
2023-04-02T05:26:27.079Z,24.73
2023-04-02T05:27:27.097Z,24.73
2023-04-02T05:28:27.114Z,24.70
2023-04-02T05:29:27.126Z,24.68
2023-04-02T05:30:27.139Z,24.66
2023-04-02T05:31:27.177Z,24.70
2023-04-02T05:32:27.174Z,24.71
2023-04-02T05:33:27.190Z,24.69
2023-04-02T05:34:27.182Z,24.66
2023-04-02T05:35:27.180Z,24.69
2023-04-02T05:36:27.225Z,24.66
2023-04-02T05:37:27.218Z,24.63
2023-04-02T05:38:27.217Z,24.66
2023-04-02T05:39:27.227Z,24.69
2023-04-02T05:40:27.236Z,24.66
2023-04-02T05:41:27.263Z,24.67
2023-04-02T05:42:27.273Z,24.62
2023-04-02T05:43:27.260Z,24.68
2023-04-02T05:44:27.288Z,24.65
2023-04-02T05:45:27.278Z,24.58
2023-04-02T05:46:27.376Z,24.66
2023-04-02T05:47:27.351Z,24.70
2023-04-02T05:48:27.321Z,24.72
2023-04-02T05:49:27.322Z,24.62
2023-04-02T05:50:27.335Z,24.63
2023-04-02T05:51:27.355Z,24.66
2023-04-02T05:52:27.377Z,24.68
2023-04-02T05:53:27.383Z,24.68
2023-04-02T05:54:27.367Z,24.70
2023-04-02T05:55:27.364Z,24.67
2023-04-02T05:56:27.387Z,24.64
2023-04-02T05:57:39.867Z,24.68
2023-04-02T05:59:27.488Z,24.73
2023-04-02T06:00:27.514Z,24.71
2023-04-02T06:01:27.522Z,24.74
2023-04-02T06:02:27.643Z,24.74
2023-04-02T06:03:27.692Z,24.73
2023-04-02T06:04:27.560Z,24.71
2023-04-02T06:05:27.574Z,24.79
2023-04-02T06:06:27.594Z,24.79
2023-04-02T06:07:27.625Z,24.73
2023-04-02T06:08:27.625Z,24.75
2023-04-02T06:09:27.705Z,24.73
2023-04-02T06:10:27.695Z,24.76
2023-04-02T06:11:27.698Z,24.74
2023-04-02T06:12:27.732Z,24.73
2023-04-02T06:13:27.739Z,24.77
2023-04-02T06:14:27.802Z,24.72
2023-04-02T06:15:27.797Z,24.73
2023-04-02T06:16:27.847Z,24.74
2023-04-02T06:17:28.001Z,24.73
2023-04-02T06:18:27.977Z,24.75
2023-04-02T06:19:27.971Z,24.74
2023-04-02T06:20:27.907Z,24.75
2023-04-02T06:21:27.978Z,24.78
2023-04-02T06:22:28.009Z,24.78
2023-04-02T06:23:28.002Z,24.75
2023-04-02T06:24:27.951Z,24.78
2023-04-02T06:25:28.001Z,24.82
2023-04-02T06:26:28.054Z,24.78
2023-04-02T06:27:28.033Z,24.75
2023-04-02T06:28:28.053Z,24.79
2023-04-02T06:29:28.078Z,24.79
2023-04-02T06:30:28.073Z,24.81
2023-04-02T06:31:28.021Z,24.80
2023-04-02T06:32:28.108Z,24.79
2023-04-02T06:33:28.093Z,24.83
2023-04-02T06:34:28.011Z,24.84
2023-04-02T06:35:28.161Z,24.80
2023-04-02T06:36:28.095Z,24.82
2023-04-02T06:37:28.149Z,24.87
2023-04-02T06:38:28.153Z,24.90
2023-04-02T06:39:28.239Z,24.86
2023-04-02T06:40:28.262Z,24.90
2023-04-02T06:41:28.293Z,24.92
2023-04-02T06:42:28.368Z,24.88
2023-04-02T06:43:28.411Z,24.88
2023-04-02T06:44:28.430Z,24.95
2023-04-02T06:45:28.533Z,24.95
2023-04-02T06:46:28.595Z,24.97
2023-04-02T06:47:28.613Z,24.97
2023-04-02T06:48:28.649Z,24.96
2023-04-02T06:49:28.686Z,25.05
2023-04-02T06:50:28.727Z,25.06
2023-04-02T06:51:28.756Z,25.03
2023-04-02T06:52:28.758Z,25.03
2023-04-02T06:53:28.776Z,25.10
2023-04-02T06:54:28.809Z,25.09
2023-04-02T06:55:28.871Z,25.05
2023-04-02T06:56:28.849Z,25.06
2023-04-02T06:57:28.907Z,25.07
2023-04-02T06:58:28.913Z,25.10
2023-04-02T06:59:28.907Z,25.07
2023-04-02T07:00:28.923Z,25.09
2023-04-02T07:01:29.027Z,25.02
2023-04-02T07:02:29.089Z,25.03
2023-04-02T07:03:29.053Z,24.99
2023-04-02T07:04:29.150Z,24.96
2023-04-02T07:05:29.199Z,24.95
2023-04-02T07:06:29.295Z,24.90
2023-04-02T07:07:29.360Z,24.90
2023-04-02T07:08:29.464Z,24.83
2023-04-02T07:09:29.495Z,24.84
2023-04-02T07:10:29.588Z,24.78
2023-04-02T07:11:29.643Z,24.79
2023-04-02T07:12:29.749Z,24.75
2023-04-02T07:13:29.810Z,24.76
2023-04-02T07:14:29.880Z,24.70
2023-04-02T07:15:29.951Z,24.75
2023-04-02T07:16:30.072Z,24.78
2023-04-02T07:17:30.155Z,24.78
2023-04-02T07:18:30.177Z,24.73
2023-04-02T07:19:30.228Z,24.75
2023-04-02T07:20:30.311Z,24.69
2023-04-02T07:21:30.384Z,24.72
2023-04-02T07:22:30.387Z,24.74
2023-04-02T07:23:30.387Z,24.71
2023-04-02T07:24:30.399Z,24.72
2023-04-02T07:25:30.411Z,24.71
2023-04-02T07:26:30.418Z,24.72
2023-04-02T07:27:30.422Z,24.73
2023-04-02T07:28:30.440Z,24.72
2023-04-02T07:29:30.437Z,24.71
2023-04-02T07:30:30.438Z,24.68
2023-04-02T07:31:30.618Z,24.72
2023-04-02T07:32:30.655Z,24.69
2023-04-02T07:33:30.698Z,24.69
2023-04-02T07:34:30.718Z,24.73
2023-04-02T07:35:30.771Z,24.75
2023-04-02T07:36:30.843Z,24.74
2023-04-02T07:37:30.898Z,24.78
2023-04-02T07:38:30.976Z,24.83
2023-04-02T07:39:31.034Z,24.76
2023-04-02T07:40:31.089Z,24.73
2023-04-02T07:41:31.157Z,24.71
2023-04-02T07:42:31.168Z,24.67
2023-04-02T07:43:31.160Z,24.67
2023-04-02T07:44:31.166Z,24.59
2023-04-02T07:45:31.156Z,24.55
2023-04-02T07:46:31.216Z,24.55
2023-04-02T07:47:31.230Z,24.53
2023-04-02T07:48:31.169Z,24.50
2023-04-02T07:49:31.182Z,24.51
2023-04-02T07:50:31.173Z,24.47
2023-04-02T07:51:31.173Z,24.50
2023-04-02T07:52:31.175Z,24.54
2023-04-02T07:53:31.192Z,24.53
2023-04-02T07:54:31.187Z,24.57
2023-04-02T07:55:31.187Z,24.54
2023-04-02T07:56:31.188Z,24.55
2023-04-02T07:57:31.308Z,24.45
2023-04-02T07:58:31.267Z,24.37
2023-04-02T07:59:31.192Z,24.36
2023-04-02T08:00:31.198Z,24.36
2023-04-02T08:01:31.202Z,24.29
2023-04-02T08:02:31.316Z,24.28
2023-04-02T08:03:31.372Z,24.26
2023-04-02T08:04:31.224Z,24.20
2023-04-02T08:05:31.226Z,24.16
2023-04-02T08:06:31.231Z,24.18
2023-04-02T08:07:31.256Z,24.13
2023-04-02T08:08:31.243Z,24.07
2023-04-02T08:09:31.257Z,24.00
2023-04-02T08:10:31.256Z,23.91
2023-04-02T08:11:32.027Z,23.85
2023-04-02T08:12:31.287Z,23.75
2023-04-02T08:13:31.284Z,23.68
2023-04-02T08:14:31.273Z,23.65
2023-04-02T08:15:31.268Z,23.58
2023-04-02T08:16:31.286Z,23.54
2023-04-02T08:17:31.371Z,23.56
2023-04-02T08:18:31.292Z,23.61
2023-04-02T08:19:32.675Z,23.59
2023-04-02T08:20:31.287Z,23.53
2023-04-02T08:21:31.275Z,23.48
2023-04-02T08:22:31.273Z,23.43
2023-04-02T08:23:31.296Z,23.43
2023-04-02T08:24:31.327Z,23.39
2023-04-02T08:25:31.357Z,23.21
2023-04-02T08:26:31.388Z,23.15
2023-04-02T08:27:31.408Z,23.12
2023-04-02T08:28:31.435Z,23.07
2023-04-02T08:29:31.449Z,22.96
2023-04-02T08:30:31.551Z,22.99
2023-04-02T08:31:31.488Z,23.01
2023-04-02T08:32:31.539Z,23.04
2023-04-02T08:33:31.532Z,23.10
2023-04-02T08:34:31.552Z,23.13
2023-04-02T08:35:31.593Z,23.02
2023-04-02T08:36:31.599Z,22.97
2023-04-02T08:37:31.626Z,23.00
2023-04-02T08:38:31.630Z,22.98
2023-04-02T08:39:31.672Z,22.92
2023-04-02T08:40:31.667Z,22.83
2023-04-02T08:41:31.669Z,22.72
2023-04-02T08:42:31.683Z,22.64
2023-04-02T08:43:31.707Z,22.65
2023-04-02T08:44:31.705Z,22.76
2023-04-02T08:45:31.717Z,22.80
2023-04-02T08:46:31.922Z,22.78
2023-04-02T08:47:31.794Z,22.74
2023-04-02T08:48:31.765Z,22.80
2023-04-02T08:49:31.764Z,22.85
2023-04-02T08:50:31.754Z,22.84
2023-04-02T08:51:31.747Z,22.81
2023-04-02T08:52:31.754Z,22.87
2023-04-02T08:53:31.750Z,22.83
2023-04-02T08:54:31.765Z,22.80
2023-04-02T08:55:31.773Z,22.79
2023-04-02T08:56:31.782Z,22.76
2023-04-02T08:57:31.878Z,22.78
2023-04-02T08:58:31.768Z,22.74
2023-04-02T08:59:31.814Z,22.70
2023-04-02T09:00:31.790Z,22.76
2023-04-02T09:01:31.845Z,22.81
2023-04-02T09:02:31.986Z,22.83
2023-04-02T09:03:31.802Z,22.90
2023-04-02T09:04:31.854Z,22.88
2023-04-02T09:05:31.829Z,22.92
2023-04-02T09:06:31.828Z,22.95
2023-04-02T09:07:31.824Z,23.01
2023-04-02T09:08:31.835Z,23.09
2023-04-02T09:09:31.845Z,23.10
2023-04-02T09:10:31.911Z,23.11
2023-04-02T09:11:31.981Z,23.10
2023-04-02T09:12:32.064Z,23.17
2023-04-02T09:13:32.092Z,23.16
2023-04-02T09:14:32.156Z,23.20
2023-04-02T09:15:32.180Z,23.19
2023-04-02T09:16:32.258Z,23.25
2023-04-02T09:17:42.686Z,23.29
2023-04-02T09:18:33.288Z,23.31
2023-04-02T09:19:32.274Z,23.33
2023-04-02T09:20:32.258Z,23.34
2023-04-02T09:21:32.261Z,23.35
2023-04-02T09:22:32.258Z,23.32
2023-04-02T09:23:32.259Z,23.39
2023-04-02T09:24:32.271Z,23.41
2023-04-02T09:25:32.377Z,23.41
2023-04-02T09:26:32.279Z,23.43
2023-04-02T09:27:32.289Z,23.47
2023-04-02T09:28:32.262Z,23.49
2023-04-02T09:29:32.267Z,23.45
2023-04-02T09:30:32.281Z,23.38
2023-04-02T09:31:32.307Z,23.37
2023-04-02T09:32:32.271Z,23.40
2023-04-02T09:33:32.268Z,23.43
2023-04-02T09:34:32.306Z,23.44
2023-04-02T09:35:32.292Z,23.46
2023-04-02T09:36:32.337Z,23.47
2023-04-02T09:37:32.281Z,23.50
2023-04-02T09:38:32.280Z,23.49
2023-04-02T09:39:32.295Z,23.54
2023-04-02T09:40:32.285Z,23.55
2023-04-02T09:41:32.298Z,23.60
2023-04-02T09:42:32.283Z,23.63
2023-04-02T09:43:32.302Z,23.61
2023-04-02T09:44:32.301Z,23.62
2023-04-02T09:45:32.293Z,23.65
2023-04-02T09:46:32.325Z,23.64
2023-04-02T09:47:32.297Z,23.65
2023-04-02T09:48:32.280Z,23.65
2023-04-02T09:49:32.283Z,23.66
2023-04-02T09:50:32.268Z,23.68
2023-04-02T09:51:32.278Z,23.65
2023-04-02T09:52:32.268Z,23.56
2023-04-02T09:53:32.266Z,23.51
2023-04-02T09:54:32.264Z,23.44
2023-04-02T09:55:32.246Z,23.39
2023-04-02T09:56:32.290Z,23.39
2023-04-02T09:57:32.372Z,23.38
2023-04-02T09:58:32.345Z,23.47
2023-04-02T09:59:32.375Z,23.54
2023-04-02T10:00:41.663Z,23.59
2023-04-02T10:01:33.425Z,23.62
2023-04-02T10:02:32.407Z,23.69
2023-04-02T10:03:32.386Z,23.70
2023-04-02T10:04:32.397Z,23.72
2023-04-02T10:05:40.580Z,23.72
2023-04-02T10:06:33.377Z,23.75
2023-04-02T10:07:32.385Z,23.76
2023-04-02T10:08:32.371Z,23.71
2023-04-02T10:09:32.409Z,23.67
2023-04-02T10:10:32.373Z,23.66
2023-04-02T10:11:43.808Z,23.67
2023-04-02T10:12:33.382Z,23.70
2023-04-02T10:13:32.383Z,23.74
2023-04-02T10:14:32.390Z,23.74
2023-04-02T10:15:32.388Z,23.72
2023-04-02T10:16:32.463Z,23.76
2023-04-02T10:17:32.434Z,23.73
2023-04-02T10:18:32.371Z,23.69
2023-04-02T10:19:32.385Z,23.64
2023-04-02T10:20:36.354Z,23.60
2023-04-02T10:21:33.401Z,23.61
2023-04-02T10:22:32.360Z,23.68
2023-04-02T10:23:32.356Z,23.71
2023-04-02T10:24:32.358Z,23.77
2023-04-02T10:25:32.354Z,23.75
2023-04-02T10:26:32.343Z,23.78
2023-04-02T10:27:32.335Z,23.91
2023-04-02T10:28:32.330Z,23.93
2023-04-02T10:29:32.318Z,23.89
2023-04-02T10:30:32.642Z,23.87
2023-04-02T10:31:32.311Z,23.87
2023-04-02T10:32:32.361Z,23.91
2023-04-02T10:33:32.333Z,23.96
2023-04-02T10:34:32.302Z,24.02
2023-04-02T10:35:32.337Z,24.01
2023-04-02T10:36:32.281Z,24.12
2023-04-02T10:37:32.278Z,24.14
2023-04-02T10:38:32.270Z,24.11
2023-04-02T10:39:32.277Z,24.18
2023-04-02T10:40:32.276Z,24.16
2023-04-02T10:41:32.248Z,24.20
2023-04-02T10:42:32.237Z,24.17
2023-04-02T10:43:32.221Z,24.18
2023-04-02T10:44:32.221Z,24.16
2023-04-02T10:45:32.215Z,24.15
2023-04-02T10:46:32.253Z,24.17
2023-04-02T10:47:32.227Z,24.12
2023-04-02T10:48:32.194Z,24.13
2023-04-02T10:49:32.278Z,24.17
2023-04-02T10:50:32.170Z,24.20
2023-04-02T10:51:32.162Z,24.23
2023-04-02T10:52:32.154Z,24.25
2023-04-02T10:53:32.155Z,24.27
2023-04-02T10:54:32.132Z,24.20
2023-04-02T10:55:32.132Z,24.28
2023-04-02T10:56:44.122Z,24.26
2023-04-02T10:57:33.203Z,24.26
2023-04-02T10:58:32.096Z,24.29
2023-04-02T10:59:32.106Z,24.29
2023-04-02T11:00:32.105Z,24.31
2023-04-02T11:01:32.100Z,24.29
2023-04-02T11:02:32.204Z,24.32
2023-04-02T11:03:32.128Z,24.39
2023-04-02T11:04:32.084Z,24.42
2023-04-02T11:05:32.055Z,24.38
2023-04-02T11:06:32.039Z,24.42
2023-04-02T11:07:32.038Z,24.45
2023-04-02T11:08:32.029Z,24.44
2023-04-02T11:09:32.031Z,24.47
2023-04-02T11:10:32.023Z,24.48
2023-04-02T11:11:32.028Z,24.46
2023-04-02T11:12:31.997Z,24.50
2023-04-02T11:13:31.990Z,24.55
2023-04-02T11:14:31.986Z,24.53
2023-04-02T11:15:31.984Z,24.52
2023-04-02T11:16:32.049Z,24.56
2023-04-02T11:17:31.967Z,24.47
2023-04-02T11:18:31.956Z,24.44
2023-04-02T11:19:31.938Z,24.42
2023-04-02T11:20:31.946Z,24.33
2023-04-02T11:21:31.932Z,24.31
2023-04-02T11:22:31.934Z,24.32
2023-04-02T11:23:31.929Z,24.41
2023-04-02T11:24:31.926Z,24.39
2023-04-02T11:25:31.933Z,24.41
2023-04-02T11:26:31.920Z,24.46
2023-04-02T11:27:31.939Z,24.50
2023-04-02T11:28:31.925Z,24.49
2023-04-02T11:29:31.911Z,24.49
2023-04-02T11:30:31.910Z,24.51
2023-04-02T11:31:31.955Z,24.52
2023-04-02T11:32:31.919Z,24.57
2023-04-02T11:33:38.345Z,24.58
2023-04-02T11:34:32.887Z,24.58
2023-04-02T11:35:31.952Z,24.65
2023-04-02T11:36:31.873Z,24.65
2023-04-02T11:37:31.861Z,24.64
2023-04-02T11:38:31.856Z,24.66
2023-04-02T11:39:31.844Z,24.69
2023-04-02T11:40:31.845Z,24.70
2023-04-02T11:41:31.825Z,24.77
2023-04-02T11:42:31.826Z,24.75
2023-04-02T11:43:31.814Z,24.81
2023-04-02T11:44:31.817Z,24.86
2023-04-02T11:45:35.526Z,24.87
2023-04-02T11:46:32.849Z,24.91
2023-04-02T11:47:31.830Z,24.93
2023-04-02T11:48:31.810Z,24.94
2023-04-02T11:49:31.800Z,24.96
2023-04-02T11:50:31.793Z,24.96
2023-04-02T11:51:31.799Z,24.98
2023-04-02T11:52:31.800Z,25.03
2023-04-02T11:53:31.799Z,25.05
2023-04-02T11:54:31.782Z,25.04
2023-04-02T11:55:31.788Z,25.07
2023-04-02T11:56:31.788Z,25.09
2023-04-02T11:57:31.855Z,25.10
2023-04-02T11:58:31.766Z,25.11
2023-04-02T11:59:31.765Z,25.11
2023-04-02T12:00:31.756Z,25.08
2023-04-02T12:01:31.788Z,25.12
2023-04-02T12:02:31.875Z,25.12
2023-04-02T12:03:31.763Z,25.15
2023-04-02T12:04:31.751Z,25.19
2023-04-02T12:05:31.795Z,25.16
2023-04-02T12:06:31.750Z,25.16
2023-04-02T12:07:31.729Z,25.18
2023-04-02T12:08:31.732Z,25.21
2023-04-02T12:09:31.740Z,25.18
2023-04-02T12:10:31.775Z,25.20
2023-04-02T12:11:31.743Z,25.23
2023-04-02T12:12:31.735Z,25.24
2023-04-02T12:13:31.736Z,25.26
2023-04-02T12:14:31.724Z,25.26
2023-04-02T12:15:31.723Z,25.28
2023-04-02T12:16:31.741Z,25.25
2023-04-02T12:17:31.755Z,25.24
2023-04-02T12:18:31.694Z,25.29
2023-04-02T12:19:31.703Z,25.30
2023-04-02T12:20:31.701Z,25.32
2023-04-02T12:21:31.704Z,25.32
2023-04-02T12:22:31.687Z,25.31
2023-04-02T12:23:31.724Z,25.30
2023-04-02T12:24:31.682Z,25.33
2023-04-02T12:25:31.747Z,25.32
2023-04-02T12:26:31.667Z,25.34
2023-04-02T12:27:31.658Z,25.33
2023-04-02T12:28:31.662Z,25.35
2023-04-02T12:29:31.667Z,25.37
2023-04-02T12:30:31.646Z,25.38
2023-04-02T12:31:31.688Z,25.35
2023-04-02T12:32:31.673Z,25.35
2023-04-02T12:33:31.631Z,25.40
2023-04-02T12:34:31.622Z,25.41
2023-04-02T12:35:31.662Z,25.46
2023-04-02T12:36:31.622Z,25.44
2023-04-02T12:37:31.628Z,25.46
2023-04-02T12:38:31.611Z,25.43
2023-04-02T12:39:31.616Z,25.46
2023-04-02T12:40:31.608Z,25.46
2023-04-02T12:41:31.607Z,25.49
2023-04-02T12:42:31.609Z,25.50
2023-04-02T12:43:31.602Z,25.53
2023-04-02T12:44:31.599Z,25.55
2023-04-02T12:45:31.594Z,25.56
2023-04-02T12:46:31.683Z,25.57
2023-04-02T12:47:31.633Z,25.56
2023-04-02T12:48:31.589Z,25.55
2023-04-02T12:49:31.595Z,25.55
2023-04-02T12:50:31.587Z,25.58
2023-04-02T12:51:31.583Z,25.60
2023-04-02T12:52:31.594Z,25.60
2023-04-02T12:53:31.580Z,25.61